Time;durP1;ratioP1;P1;durP2;ratioP2;P2;SDS_P1;SDS_P2;PMS_P1;PMS_P2;Temp;Humidity;BMP_temperature;BMP_pressure;BME280_temperature;BME280_humidity;BME280_pressure;Samples;Min_cycle;Max_cycle;Signal;HPM_P1;HPM_P2
2022/05/14 00:00:25;;;;;;;4.00;3.60;;;13.60;82.40;;;;;;5053425;28;20454;-61
2022/05/14 00:02:55;;;;;;;5.07;4.10;;;13.60;82.80;;;;;;5053667;28;20440;-60
2022/05/14 00:05:24;;;;;;;4.60;3.90;;;13.60;83.20;;;;;;5053838;28;20501;-60
2022/05/14 00:07:51;;;;;;;5.73;3.80;;;;;;;;;;5054093;28;20526;-61
2022/05/14 00:10:19;;;;;;;8.97;4.10;;;;;;;;;;5053815;28;20440;-60
2022/05/14 00:13:04;;;;;;;5.07;3.53;;;;;;;;;;5053252;28;20451;-60
2022/05/14 00:15:32;;;;;;;6.63;3.63;;;;;;;;;;5053611;28;20428;-61
2022/05/14 00:18:01;;;;;;;6.00;3.70;;;;;;;;;;5053674;28;20471;-60
2022/05/14 00:20:28;;;;;;;8.83;3.73;;;;;;;;;;5053382;28;20906;-60
2022/05/14 00:22:56;;;;;;;7.97;3.60;;;;;;;;;;5053289;28;20809;-60
2022/05/14 00:25:23;;;;;;;6.10;3.73;;;;;;;;;;5053172;28;20916;-61
2022/05/14 00:27:51;;;;;;;8.57;5.20;;;;;;;;;;5053080;28;20475;-60
2022/05/14 00:30:19;;;;;;;8.50;4.50;;;;;;;;;;5053300;28;20491;-60
2022/05/14 00:32:47;;;;;;;6.33;3.50;;;;;;;;;;5053234;28;20452;-60
2022/05/14 00:35:16;;;;;;;4.20;3.80;;;;;;;;;;5053424;28;20459;-60
2022/05/14 00:37:43;;;;;;;5.60;4.43;;;;;;;;;;5053510;28;20493;-60
2022/05/14 00:40:13;;;;;;;6.60;3.70;;;;;;;;;;5055930;28;20444;-61
2022/05/14 00:42:41;;;;;;;7.43;4.37;;;;;;;;;;5060837;28;20452;-61
2022/05/14 00:45:08;;;;;;;8.17;3.90;;;;;;;;;;5060174;28;20448;-61
2022/05/14 00:47:37;;;;;;;8.40;4.30;;;;;;;;;;5060198;28;20468;-60
2022/05/14 00:50:05;;;;;;;5.83;4.53;;;;;;;;;;5057713;28;20460;-60
2022/05/14 00:52:34;;;;;;;7.03;4.07;;;;;;;;;;5057359;28;20432;-61
2022/05/14 00:55:03;;;;;;;7.10;5.30;;;;;;;;;;5057890;28;20526;-61
2022/05/14 00:57:36;;;;;;;7.50;3.80;;;;;;;;;;5057361;28;20915;-60
2022/05/14 01:00:06;;;;;;;6.23;3.70;;;;;;;;;;5056689;28;20436;-60
2022/05/14 01:02:33;;;;;;;10.40;4.20;;;;;;;;;;5057884;28;20446;-60
2022/05/14 01:05:01;;;;;;;5.90;4.10;;;;;;;;;;5055903;28;20440;-61
2022/05/14 01:07:29;;;;;;;10.37;4.80;;;;;;;;;;5054293;28;20463;-59
2022/05/14 01:09:59;;;;;;;5.37;4.43;;;;;;;;;;5055945;28;20456;-60
2022/05/14 01:12:27;;;;;;;7.93;3.77;;;;;;;;;;5055099;28;20835;-60
2022/05/14 01:14:54;;;;;;;7.93;3.90;;;;;;;;;;5054656;28;20480;-60
2022/05/14 01:17:22;;;;;;;6.10;3.93;;;;;;;;;;5054050;28;20475;-60
2022/05/14 01:19:49;;;;;;;9.13;3.73;;;;;;;;;;5053697;28;20451;-60
2022/05/14 01:22:28;;;;;;;9.20;4.40;;;;;;;;;;5053046;28;20459;-60
2022/05/14 01:27:44;;;;;;;8.60;4.70;;;;;;;;;;5052615;28;20430;-62
2022/05/14 01:30:11;;;;;;;6.30;3.73;;;;;;;;;;5052872;28;20446;-60
2022/05/14 01:32:39;;;;;;;11.67;3.50;;;;;;;;;;5052758;28;20821;-60
2022/05/14 01:35:06;;;;;;;6.17;3.67;;;;;;;;;;5052752;28;20478;-60
2022/05/14 01:37:34;;;;;;;5.70;3.60;;;;;;;;;;5052566;28;20464;-61
2022/05/14 01:40:01;;;;;;;5.37;3.97;;;;;;;;;;5052301;28;20444;-60
2022/05/14 01:42:29;;;;;;;4.97;3.30;;;;;;;;;;5052608;28;20451;-60
2022/05/14 01:44:57;;;;;;;5.47;3.53;;;;;;;;;;5052795;28;20511;-61
2022/05/14 01:47:25;;;;;;;5.97;3.67;;;;;;;;;;5052311;28;20467;-60
2022/05/14 01:49:52;;;;;;;4.50;3.07;;;;;;;;;;5052382;28;20456;-60
2022/05/14 01:52:19;;;;;;;7.33;3.80;;;;;;;;;;5052171;28;20937;-61
2022/05/14 01:54:47;;;;;;;8.13;4.03;;;;;;;;;;5052379;28;20480;-60
2022/05/14 01:57:14;;;;;;;7.77;4.17;;;;;;;;;;5052672;28;20494;-60
2022/05/14 01:59:41;;;;;;;7.27;3.90;;;;;;;;;;5055737;28;20450;-60
2022/05/14 02:02:11;;;;;;;8.13;4.00;;;;;;;;;;5055859;28;20451;-60
2022/05/14 02:04:39;;;;;;;11.07;3.70;;;;;;;;;;5079425;22;20487;-60
2022/05/14 02:07:06;;;;;;;5.00;4.00;;;;;;;;;;5056043;28;20452;-59
2022/05/14 02:09:34;;;;;;;5.67;3.80;;;;;;;;;;5055712;28;20444;-59
2022/05/14 02:12:02;;;;;;;7.67;3.97;;;;;;;;;;5055963;28;20447;-60
2022/05/14 02:14:30;;;;;;;8.63;3.97;;;;;;;;;;5066382;28;20835;-60
2022/05/14 02:16:57;;;;;;;6.13;4.23;;;;;;;;;;5076345;28;20458;-59
2022/05/14 02:19:26;;;;;;;8.00;4.10;;;;;;;;;;5075642;28;20479;-59
2022/05/14 02:21:53;;;;;;;6.47;4.23;;;;;;;;;;5075450;28;20450;-60
2022/05/14 02:24:21;;;;;;;7.97;3.63;;;;;;;;;;5075796;28;20459;-59
2022/05/14 02:26:48;;;;;;;5.50;3.63;;;;;;;;;;5075987;28;20493;-59
2022/05/14 02:29:15;;;;;;;9.27;4.40;;;;;;;;;;5075382;28;20446;-60
2022/05/14 02:31:42;;;;;;;9.53;3.60;;;;;;;;;;5075003;28;20439;-60
2022/05/14 02:34:10;;;;;;;7.70;4.27;;;;;;;;;;5074842;28;20486;-60
2022/05/14 02:36:38;;;;;;;8.07;4.27;;;;;;;;;;5075415;28;20469;-59
2022/05/14 02:39:06;;;;;;;11.70;4.07;;;;;;;;;;5075055;28;20444;-59
2022/05/14 02:41:33;;;;;;;6.07;4.07;;;;;;;;;;5074991;28;20436;-59
2022/05/14 02:44:00;;;;;;;6.33;4.20;;;;;;;;;;5074881;28;20486;-59
2022/05/14 02:46:28;;;;;;;7.70;4.67;;;;;;;;;;5075072;28;20455;-59
2022/05/14 02:48:55;;;;;;;9.63;4.47;;;;;;;;;;5075055;28;20443;-60
2022/05/14 02:51:22;;;;;;;8.43;4.03;;;;;;;;;;5075194;28;20462;-60
2022/05/14 02:53:51;;;;;;;6.13;3.60;;;;;;;;;;5074480;28;20485;-60
2022/05/14 02:56:18;;;;;;;7.20;4.03;;;;;;;;;;5074847;28;20447;-59
2022/05/14 03:01:30;;;;;;;11.33;4.43;;;;;;;;;;5074458;28;20793;-60
2022/05/14 03:03:58;;;;;;;10.43;4.90;;;;;;;;;;5074401;28;20470;-60
2022/05/14 03:06:25;;;;;;;5.87;4.10;;;;;;;;;;5074620;28;20443;-60
2022/05/14 03:08:54;;;;;;;7.07;4.60;;;;;;;;;;5074325;28;20439;-60
2022/05/14 03:11:21;;;;;;;11.40;3.97;;;;;;;;;;5074955;28;20873;-59
2022/05/14 03:13:49;;;;;;;5.47;4.63;;;;;;;;;;5074272;28;20479;-59
2022/05/14 03:16:16;;;;;;;8.80;5.40;;;;;;;;;;5074172;28;20943;-59
2022/05/14 03:18:43;;;;;;;8.47;3.80;;;;;;;;;;5073961;28;20439;-59
2022/05/14 03:21:11;;;;;;;6.37;4.20;;;;;;;;;;5074135;28;20455;-59
2022/05/14 03:23:38;;;;;;;9.57;3.90;;;;;;;;;;5074286;28;20501;-60
2022/05/14 03:26:07;;;;;;;7.70;3.90;;;;;;;;;;5073925;28;20439;-59
2022/05/14 03:28:34;;;;;;;7.90;3.60;;;;;;;;;;5074191;28;20455;-59
2022/05/14 03:31:01;;;;;;;10.77;3.87;;;;;;;;;;5073758;28;20443;-59
2022/05/14 03:33:28;;;;;;;9.43;4.10;;;;;;;;;;5073886;28;20857;-59
2022/05/14 03:35:56;;;;;;;8.63;3.83;;;;;;;;;;5073903;28;20478;-59
2022/05/14 03:38:23;;;;;;;11.40;4.70;;;;;;;;;;5073842;28;20653;-60
2022/05/14 03:40:50;;;;;;;5.40;3.50;;;;;;;;;;5073571;28;20488;-59
2022/05/14 03:43:19;;;;;;;5.57;3.80;;;;;;;;;;5073707;28;20505;-59
2022/05/14 03:45:46;;;;;;;6.57;4.50;;;;;;;;;;5073811;28;20445;-59
2022/05/14 03:48:14;;;;;;;9.37;3.87;;;;;;;;;;5073791;28;20451;-59
2022/05/14 03:50:41;;;;;;;7.80;4.37;;;;;;;;;;5074685;28;20453;-59
2022/05/14 03:53:08;;;;;;;9.37;4.50;;;;;;;;;;5074310;28;20447;-59
2022/05/14 03:55:36;;;;;;;4.63;3.93;;;;;;;;;;5074105;28;20535;-59
2022/05/14 03:58:03;;;;;;;10.07;4.00;;;;;;;;;;5073673;28;20469;-59
2022/05/14 04:00:32;;;;;;;4.83;3.73;;;;;;;;;;5073621;28;20454;-60
2022/05/14 04:02:59;;;;;;;7.23;4.13;;;;;;;;;;5073674;28;20431;-59
2022/05/14 04:05:27;;;;;;;7.60;3.97;;;;;;;;;;5073242;28;20998;-59
2022/05/14 04:09:44;;;;;;;7.70;4.30;;;;;;;;;;5090236;27;20851;-58
2022/05/14 04:12:12;;;;;;;6.07;4.57;;;;;;;;;;5090005;28;20442;-59
2022/05/14 04:14:39;;;;;;;7.07;4.23;;;;;;;;;;5089826;28;20459;-58
2022/05/14 04:17:06;;;;;;;6.40;4.00;;;;;;;;;;5090171;28;20443;-59
2022/05/14 04:19:34;;;;;;;5.17;3.57;;;12.20;95.00;;;;;;5090574;28;20442;-59
2022/05/14 04:22:01;;;;;;;6.30;4.03;;;12.50;94.10;;;;;;5090545;28;20476;-59
2022/05/14 04:24:28;;;;;;;7.60;4.73;;;12.60;93.80;;;;;;5091231;28;20462;-59
2022/05/14 04:26:57;;;;;;;9.60;4.50;;;12.70;93.60;;;;;;5091225;28;20545;-58
2022/05/14 04:29:24;;;;;;;6.00;4.37;;;13.00;93.60;;;;;;5090589;28;20474;-58
2022/05/14 04:31:51;;;;;;;6.17;4.47;;;13.20;92.80;;;;;;5090127;28;20450;-59
2022/05/14 04:34:18;;;;;;;6.63;4.10;;;13.40;92.20;;;;;;5089615;28;20463;-59
2022/05/14 04:36:45;;;;;;;12.57;4.73;;;13.70;91.70;;;;;;5090032;28;20442;-59
2022/05/14 04:39:13;;;;;;;6.63;4.90;;;14.00;90.70;;;;;;5090099;28;20434;-59
2022/05/14 04:41:40;;;;;;;4.80;3.10;;;14.30;89.40;;;;;;5090037;28;20808;-59
2022/05/14 04:44:08;;;;;;;7.10;4.30;;;14.50;87.80;;;;;;5089824;28;20477;-59
2022/05/14 04:46:36;;;;;;;5.50;3.90;;;14.70;85.70;;;;;;5089663;28;20446;-59
2022/05/14 04:49:04;;;;;;;13.43;4.23;;;14.80;85.10;;;;;;5089767;28;20477;-59
2022/05/14 04:51:31;;;;;;;7.07;4.10;;;15.00;84.10;;;;;;5089780;28;20461;-59
2022/05/14 04:53:58;;;;;;;7.33;3.57;;;15.30;82.50;;;;;;5090084;28;20466;-59
2022/05/14 04:56:25;;;;;;;6.07;3.77;;;15.50;80.20;;;;;;5089454;28;20954;-59
2022/05/14 04:58:53;;;;;;;6.60;4.03;;;15.60;78.60;;;;;;5089402;28;20516;-60
2022/05/14 05:01:21;;;;;;;10.20;3.90;;;15.70;77.40;;;;;;5089409;28;20450;-59
2022/05/14 05:03:47;;;;;;;4.43;3.83;;;15.80;76.40;;;;;;5089274;28;20985;-59
2022/05/14 05:06:15;;;;;;;9.20;3.90;;;15.90;75.30;;;;;;5089956;28;20446;-59
2022/05/14 05:08:42;;;;;;;8.43;4.00;;;16.00;74.00;;;;;;5089231;28;20481;-59
2022/05/14 05:11:09;;;;;;;6.70;3.67;;;16.10;73.00;;;;;;5089208;28;20931;-59
2022/05/14 05:13:37;;;;;;;9.30;3.53;;;16.10;72.20;;;;;;5089053;28;20462;-58
2022/05/14 05:16:05;;;;;;;9.20;4.33;;;16.10;71.80;;;;;;5089027;28;20992;-59
2022/05/14 05:18:34;;;;;;;7.27;3.70;;;16.20;71.30;;;;;;5089159;28;20821;-59
2022/05/14 05:21:01;;;;;;;7.33;3.80;;;16.30;70.60;;;;;;5075860;28;20447;-59
2022/05/14 05:23:28;;;;;;;4.63;3.30;;;16.40;69.70;;;;;;5075198;28;20447;-58
2022/05/14 05:25:56;;;;;;;6.97;4.03;;;16.30;68.80;;;;;;5075640;28;20454;-59
2022/05/14 05:28:24;;;;;;;9.80;3.90;;;16.20;69.00;;;;;;5075577;28;20479;-59
2022/05/14 05:30:51;;;;;;;9.60;4.10;;;16.10;69.00;;;;;;5075669;28;20450;-59
2022/05/14 05:33:20;;;;;;;9.43;4.00;;;16.10;69.50;;;;;;5075102;28;20447;-60
2022/05/14 05:35:49;;;;;;;13.43;4.20;;;16.10;69.60;;;;;;5075297;28;20450;-60
2022/05/14 05:38:17;;;;;;;7.63;4.00;;;16.10;69.40;;;;;;5075603;28;20443;-57
2022/05/14 05:40:44;;;;;;;12.37;4.20;;;16.10;69.20;;;;;;5074938;28;20939;-58
2022/05/14 05:43:12;;;;;;;5.60;3.70;;;16.10;69.40;;;;;;5075297;28;20447;-60
2022/05/14 05:45:41;;;;;;;5.87;3.87;;;16.10;69.20;;;;;;5075320;28;20447;-59
2022/05/14 05:48:10;;;;;;;10.07;4.70;;;16.10;69.50;;;;;;5075318;28;20549;-59
2022/05/14 05:50:38;;;;;;;9.90;4.60;;;16.10;70.00;;;;;;5074730;28;21009;-59
2022/05/14 05:53:07;;;;;;;12.73;4.47;;;16.10;70.30;;;;;;5074854;28;20962;-59
2022/05/14 05:58:24;;;;;;;7.03;4.40;;;16.20;70.50;;;;;;5000196;28;20422;-59
2022/05/14 06:00:51;;;;;;;8.13;5.17;;;16.20;70.40;;;;;;5074873;28;20438;-59
2022/05/14 06:03:18;;;;;;;8.97;4.27;;;16.20;70.40;;;;;;5074627;28;20450;-58
2022/05/14 06:05:46;;;;;;;5.53;3.93;;;16.20;70.20;;;;;;5074982;28;20481;-58
2022/05/14 06:08:16;;;;;;;8.57;4.30;;;16.20;70.40;;;;;;5075103;28;20839;-58
2022/05/14 06:10:44;;;;;;;12.33;4.43;;;16.20;70.40;;;;;;5074552;28;20435;-59
2022/05/14 06:13:11;;;;;;;8.53;4.40;;;16.20;70.20;;;;;;5074458;28;20454;-58
2022/05/14 06:15:39;;;;;;;7.13;4.40;;;16.20;70.00;;;;;;5074414;28;20447;-59
2022/05/14 06:18:07;;;;;;;11.70;4.27;;;16.10;70.50;;;;;;5076350;28;20447;-58
2022/05/14 06:20:37;;;;;;;10.20;4.67;;;16.00;71.00;;;;;;5076102;28;20453;-59
2022/05/14 06:23:04;;;;;;;11.23;5.03;;;15.90;71.30;;;;;;5074828;28;20443;-59
2022/05/14 06:25:32;;;;;;;10.70;4.97;;;16.00;71.80;;;;;;5074360;28;20467;-59
2022/05/14 06:27:59;;;;;;;10.97;5.47;;;15.90;71.90;;;;;;5074947;28;20447;-59
2022/05/14 06:30:26;;;;;;;10.40;5.50;;;15.90;72.50;;;;;;5074597;28;20443;-59
2022/05/14 06:32:53;;;;;;;11.37;4.93;;;15.80;73.00;;;;;;5073835;28;20873;-59
2022/05/14 06:35:21;;;;;;;9.73;5.17;;;15.80;73.50;;;;;;5074037;28;20474;-59
2022/05/14 06:37:48;;;;;;;9.13;4.27;;;15.80;73.90;;;;;;5073801;28;20457;-59
2022/05/14 06:40:15;;;;;;;11.80;5.30;;;15.80;74.10;;;;;;5073803;28;20435;-59
2022/05/14 06:42:43;;;;;;;11.80;4.70;;;15.90;74.20;;;;;;5073882;28;20447;-59
2022/05/14 06:45:11;;;;;;;13.17;5.60;;;15.90;74.10;;;;;;5073907;28;20474;-58
2022/05/14 06:47:38;;;;;;;10.50;4.60;;;15.90;74.30;;;;;;5074160;28;20443;-58
2022/05/14 06:50:07;;;;;;;12.03;5.97;;;15.90;74.70;;;;;;5073895;28;20479;-58
2022/05/14 06:52:34;;;;;;;13.13;5.87;;;15.90;74.90;;;;;;5073946;28;20848;-59
2022/05/14 06:55:02;;;;;;;9.97;5.90;;;15.90;75.10;;;;;;5073596;28;20467;-58
2022/05/14 06:57:32;;;;;;;11.00;5.17;;;16.00;75.20;;;;;;5073839;28;20447;-58
2022/05/14 07:00:03;;;;;;;14.43;6.40;;;16.00;75.00;;;;;;5074150;28;20424;-60
2022/05/14 07:02:30;;;;;;;11.77;6.17;;;15.90;75.00;;;;;;5073408;28;20431;-60
2022/05/14 07:07:43;;;;;;;9.20;5.30;;;16.00;75.40;;;;;;5072978;28;20509;-59
2022/05/14 07:10:10;;;;;;;17.00;6.40;;;16.00;75.60;;;;;;5073120;28;20474;-60
2022/05/14 07:12:37;;;;;;;12.37;5.93;;;16.10;75.60;;;;;;5073232;28;20526;-59
2022/05/14 07:15:07;;;;;;;10.23;5.30;;;16.30;75.10;;;;;;5073042;28;20463;-59
2022/05/14 07:17:35;;;;;;;8.37;5.57;;;16.50;74.40;;;;;;5073091;28;20427;-59
2022/05/14 07:20:02;;;;;;;7.70;5.20;;;16.60;73.80;;;;;;5073241;28;20447;-59
2022/05/14 07:22:29;;;;;;;14.60;6.07;;;16.70;73.40;;;;;;5073122;28;20449;-59
2022/05/14 07:24:57;;;;;;;14.20;5.40;;;16.80;72.90;;;;;;5074955;28;20524;-59
2022/05/14 07:27:24;;;;;;;13.00;5.63;;;17.00;72.50;;;;;;5072967;28;20955;-59
2022/05/14 07:29:51;;;;;;;14.43;5.70;;;17.20;71.10;;;;;;5072924;28;20471;-59
2022/05/14 07:32:21;;;;;;;10.10;5.80;;;17.30;70.40;;;;;;5073446;28;20455;-59
2022/05/14 07:34:48;;;;;;;8.03;5.27;;;17.30;70.00;;;;;;5072976;28;20471;-59
2022/05/14 07:37:20;;;;;;;10.00;5.83;;;17.40;69.80;;;;;;5073096;28;20447;-60
2022/05/14 07:39:51;;;;;;;14.50;5.80;;;17.50;69.10;;;;;;5073210;28;20435;-60
2022/05/14 07:42:25;;;;;;;12.93;5.90;;;17.60;68.90;;;;;;5072639;28;20427;-59
2022/05/14 07:44:54;;;;;;;11.43;5.67;;;17.70;68.20;;;;;;5072474;28;20470;-59
2022/05/14 07:47:24;;;;;;;12.10;5.80;;;17.70;67.70;;;;;;5072646;28;20455;-59
2022/05/14 07:49:52;;;;;;;10.60;6.30;;;17.70;67.40;;;;;;5072239;28;20962;-59
2022/05/14 07:52:20;;;;;;;10.83;5.90;;;17.70;67.40;;;;;;5072444;28;21043;-59
2022/05/14 07:54:48;;;;;;;11.60;6.40;;;17.70;67.10;;;;;;5072706;28;20555;-59
2022/05/14 07:57:16;;;;;;;7.67;5.37;;;17.80;67.10;;;;;;5072395;28;20435;-59
2022/05/14 07:59:44;;;;;;;13.23;5.40;;;17.90;66.40;;;;;;5072872;28;20530;-60
2022/05/14 08:02:23;;;;;;;12.03;6.40;;;17.80;66.20;;;;;;5072703;28;20455;-59
2022/05/14 08:04:50;;;;;;;8.63;5.53;;;17.80;66.60;;;;;;5072462;28;20498;-59
2022/05/14 08:07:17;;;;;;;13.13;6.97;;;17.90;66.40;;;;;;5072784;28;20451;-60
2022/05/14 08:09:44;;;;;;;10.50;5.10;;;18.00;66.30;;;;;;5072554;28;21013;-59
2022/05/14 08:12:12;;;;;;;13.40;5.97;;;18.10;65.80;;;;;;5072643;28;20442;-59
2022/05/14 08:14:40;;;;;;;9.90;5.50;;;18.10;65.10;;;;;;5072940;28;20502;-59
2022/05/14 08:17:07;;;;;;;11.47;6.00;;;18.10;64.60;;;;;;5073140;28;20528;-59
2022/05/14 08:19:36;;;;;;;7.90;5.73;;;18.00;64.70;;;;;;5072934;28;20962;-60
2022/05/14 08:24:48;;;;;;;10.27;5.10;;;18.00;65.50;;;;;;5073133;28;20450;-59
2022/05/14 08:27:16;;;;;;;13.07;5.80;;;18.00;65.60;;;;;;5073067;28;20458;-60
2022/05/14 08:29:47;;;;;;;12.30;5.90;;;18.10;65.40;;;;;;5072076;28;21037;-59
2022/05/14 08:32:18;;;;;;;10.00;5.07;;;18.20;64.40;;;;;;5100421;22;20469;-59
2022/05/14 08:34:48;;;;;;;18.63;6.50;;;18.20;63.60;;;;;;5033805;28;20494;-59
2022/05/14 08:37:15;;;;;;;16.90;5.67;;;18.10;63.40;;;;;;5033427;28;20445;-58
2022/05/14 08:39:42;;;;;;;13.93;5.57;;;18.20;63.40;;;;;;5032995;28;20532;-58
2022/05/14 08:42:12;;;;;;;13.73;6.70;;;18.30;62.90;;;;;;5033509;28;20436;-59
2022/05/14 08:44:42;;;;;;;15.23;6.67;;;18.30;62.30;;;;;;5033304;28;20444;-59
2022/05/14 08:47:25;;;;;;;13.37;6.00;;;18.30;62.10;;;;;;5032859;28;20440;-58
2022/05/14 08:49:56;;;;;;;10.17;5.57;;;18.40;61.90;;;;;;5032487;28;20492;-58
2022/05/14 08:52:28;;;;;;;9.57;5.90;;;18.40;61.50;;;;;;5033072;28;20468;-59
2022/05/14 08:54:59;;;;;;;15.90;6.57;;;18.30;61.70;;;;;;5034067;28;20774;-58
2022/05/14 08:57:34;;;;;;;10.17;5.00;;;18.40;61.90;;;;;;5036186;28;20436;-58
2022/05/14 09:00:06;;;;;;;10.93;5.00;;;18.50;61.70;;;;;;5036573;28;20440;-60
2022/05/14 09:02:36;;;;;;;15.07;5.63;;;18.60;60.90;;;;;;5037026;28;20847;-60
2022/05/14 09:05:11;;;;;;;10.73;5.57;;;18.90;60.70;;;;;;5036518;28;20456;-60
2022/05/14 09:07:38;;;;;;;15.07;5.60;;;19.10;60.00;;;;;;5036742;28;20451;-59
2022/05/14 09:10:09;;;;;;;16.67;5.63;;;19.20;59.60;;;;;;5036497;28;20477;-61
2022/05/14 09:12:49;;;;;;;21.70;6.40;;;19.20;59.40;;;;;;5036734;28;20961;-60
2022/05/14 09:15:17;;;;;;;9.57;5.43;;;19.10;59.40;;;;;;5036549;28;20479;-60
2022/05/14 09:17:44;;;;;;;10.80;5.53;;;19.10;59.70;;;;;;5037680;28;20444;-60
2022/05/14 09:20:25;;;;;;;10.53;5.93;;;19.20;59.60;;;;;;5039333;28;20463;-59
2022/05/14 09:22:56;;;;;;;12.70;5.77;;;19.30;59.10;;;;;;5037697;28;20472;-60
2022/05/14 09:25:28;;;;;;;11.83;5.37;;;19.60;58.90;;;;;;5037062;28;20433;-60
2022/05/14 09:27:58;;;;;;;15.20;6.10;;;19.80;58.20;;;;;;5037330;28;20938;-58
2022/05/14 09:30:30;;;;;;;13.07;5.97;;;19.70;58.00;;;;;;5037565;28;20480;-60
2022/05/14 09:32:59;;;;;;;15.73;5.93;;;19.60;58.10;;;;;;5036975;28;20479;-60
2022/05/14 09:35:29;;;;;;;12.60;5.13;;;19.60;58.30;;;;;;5036305;28;20528;-59
2022/05/14 09:38:09;;;;;;;12.70;5.43;;;19.70;58.00;;;;;;5036856;28;20456;-59
2022/05/14 09:40:36;;;;;;;12.00;5.00;;;19.70;57.90;;;;;;5037247;28;20433;-60
2022/05/14 09:43:13;;;;;;;12.13;5.50;;;19.80;57.60;;;;;;5037982;28;20511;-60
2022/05/14 09:45:42;;;;;;;10.77;4.67;;;19.90;56.70;;;;;;5038084;28;20437;-60
2022/05/14 09:48:11;;;;;;;14.60;5.13;;;20.10;56.20;;;;;;5037680;28;20478;-60
2022/05/14 09:50:42;;;;;;;12.57;5.17;;;20.30;55.60;;;;;;5036571;28;21015;-59
2022/05/14 09:53:09;;;;;;;12.07;5.37;;;20.30;55.60;;;;;;5036719;28;20484;-59
2022/05/14 09:56:02;;;;;;;15.90;4.90;;;20.40;55.20;;;;;;5035878;28;20976;-60
2022/05/14 09:58:36;;;;;;;13.27;5.07;;;20.50;54.70;;;;;;5043258;28;20429;-58
2022/05/14 10:01:10;;;;;;;10.07;5.50;;;20.50;54.10;;;;;;5036331;28;20873;-58
2022/05/14 10:04:00;;;;;;;7.13;4.63;;;20.40;54.20;;;;;;5036017;28;20487;-61
2022/05/14 10:06:41;;;;;;;9.20;4.47;;;20.10;54.30;;;;;;5035279;28;20440;-60
2022/05/14 10:09:17;;;;;;;11.80;4.90;;;20.00;54.70;;;;;;5035497;28;20436;-58
2022/05/14 10:11:48;;;;;;;9.97;5.20;;;20.00;54.80;;;;;;5036039;28;20832;-61
2022/05/14 10:14:28;;;;;;;9.77;4.87;;;20.00;54.40;;;;;;5035679;28;20469;-60
2022/05/14 10:17:13;;;;;;;11.43;5.00;;;20.10;54.30;;;;;;5034900;28;20433;-61
2022/05/14 10:20:01;;;;;;;14.33;4.80;;;20.10;54.10;;;;;;5034993;28;20902;-58
2022/05/14 10:28:14;;;;;;;15.13;5.10;;;20.70;53.10;;;;;;5034707;28;20425;-60
2022/05/14 10:30:49;;;;;;;13.40;4.80;;;20.60;52.60;;;;;;5035565;28;20473;-61
2022/05/14 10:33:21;;;;;;;11.50;4.97;;;20.50;52.50;;;;;;5035066;28;20487;-60
2022/05/14 10:35:57;;;;;;;12.33;5.60;;;20.50;52.60;;;;;;5034960;28;20441;-60
2022/05/14 10:38:30;;;;;;;14.27;4.93;;;20.30;52.80;;;;;;5034750;28;20804;-60
2022/05/14 10:41:03;;;;;;;9.47;4.60;;;20.00;53.10;;;;;;5035290;28;20459;-60
2022/05/14 10:43:39;;;;;;;11.70;4.70;;;19.80;53.30;;;;;;5035046;28;20476;-60
2022/05/14 10:46:10;;;;;;;9.53;4.70;;;19.90;53.50;;;;;;5034740;28;20433;-59
2022/05/14 10:48:51;;;;;;;17.70;5.60;;;19.90;53.40;;;;;;5034691;28;20437;-61
2022/05/14 10:51:25;;;;;;;15.10;5.10;;;19.80;53.60;;;;;;5034902;28;20472;-59
2022/05/14 10:53:54;;;;;;;9.80;4.57;;;19.90;53.60;;;;;;5034000;28;20506;-62
2022/05/14 10:56:27;;;;;;;8.70;3.90;;;20.10;53.10;;;;;;5034427;28;21044;-60
2022/05/14 10:59:07;;;;;;;15.43;4.27;;;20.50;52.70;;;;;;5034630;28;20444;-60
2022/05/14 11:01:36;;;;;;;9.10;4.13;;;20.90;52.10;;;;;;5035478;28;20491;-61
2022/05/14 11:04:18;;;;;;;12.03;4.53;;;21.30;51.20;;;;;;5034738;28;20457;-62
2022/05/14 11:06:56;;;;;;;15.33;4.47;;;21.60;49.70;;;;;;5034695;28;20798;-61
2022/05/14 11:09:37;;;;;;;10.40;3.90;;;21.80;49.20;;;;;;5034170;28;20437;-61
2022/05/14 11:12:08;;;;;;;9.33;4.53;;;22.00;48.50;;;;;;5033890;28;20985;-61
2022/05/14 11:14:41;;;;;;;9.00;4.37;;;22.20;48.00;;;;;;5033837;28;20429;-61
2022/05/14 11:17:21;;;;;;;12.90;4.50;;;22.10;47.40;;;;;;5033083;28;20508;-61
2022/05/14 11:19:49;;;;;;;12.87;4.27;;;22.10;47.30;;;;;;5033897;28;20796;-61
2022/05/14 11:22:25;;;;;;;8.10;3.17;;;22.20;47.20;;;;;;5033545;28;20480;-58
2022/05/14 11:24:55;;;;;;;8.60;3.50;;;22.30;47.00;;;;;;5033622;28;20432;-61
2022/05/14 11:27:29;;;;;;;9.17;4.40;;;22.30;46.90;;;;;;5033372;28;20873;-61
2022/05/14 11:30:00;;;;;;;10.63;3.90;;;22.30;46.70;;;;;;5034141;28;20476;-61
2022/05/14 11:32:38;;;;;;;9.60;3.60;;;22.20;46.20;;;;;;5033411;28;20484;-60
2022/05/14 11:35:06;;;;;;;12.10;4.50;;;22.10;45.80;;;;;;5033619;28;20452;-60
2022/05/14 11:37:44;;;;;;;9.97;4.50;;;22.10;45.60;;;;;;5036063;28;20463;-60
2022/05/14 11:40:28;;;;;;;8.50;3.63;;;22.10;45.50;;;;;;5034570;28;20523;-62
2022/05/14 11:43:09;;;;;;;10.70;4.10;;;22.00;45.60;;;;;;5033418;28;20476;-61
2022/05/14 11:45:39;;;;;;;10.10;4.57;;;21.70;45.30;;;;;;5040385;28;20456;-59
2022/05/14 11:48:09;;;;;;;10.17;4.20;;;21.80;45.10;;;;;;5035630;28;20925;-59
2022/05/14 11:50:41;;;;;;;8.77;4.43;;;21.80;44.80;;;;;;5034751;28;20484;-61
2022/05/14 11:53:29;;;;;;;9.50;3.47;;;21.90;44.60;;;;;;5033552;28;20535;-62
2022/05/14 11:56:06;;;;;;;10.97;4.10;;;22.20;44.30;;;;;;5034112;28;20452;-60
2022/05/14 11:58:39;;;;;;;8.83;3.80;;;22.60;43.80;;;;;;5033859;28;20424;-62
2022/05/14 12:01:08;;;;;;;12.43;4.27;;;23.10;42.50;;;;;;5033490;28;20417;-60
2022/05/14 12:03:39;;;;;;;12.80;4.27;;;23.30;41.90;;;;;;5033365;28;20504;-62
2022/05/14 12:06:20;;;;;;;15.17;3.70;;;23.60;41.50;;;;;;5033578;28;20429;-61
2022/05/14 12:09:05;;;;;;;10.50;4.40;;;23.80;41.20;;;;;;5032533;28;20425;-60
2022/05/14 12:11:38;;;;;;;10.07;4.00;;;23.70;41.30;;;;;;5033152;28;20547;-61
2022/05/14 12:14:09;;;;;;;8.50;3.83;;;23.30;41.40;;;;;;5032706;28;20543;-57
2022/05/14 12:16:39;;;;;;;8.90;3.80;;;23.40;41.20;;;;;;5032377;28;20941;-62
2022/05/14 12:19:09;;;;;;;9.63;3.30;;;23.60;40.50;;;;;;5032488;28;20448;-62
2022/05/14 12:21:36;;;;;;;10.77;3.90;;;23.60;40.40;;;;;;5032715;28;20444;-63
2022/05/14 12:24:04;;;;;;;9.50;3.63;;;23.40;40.20;;;;;;5032985;28;20984;-61
2022/05/14 12:26:33;;;;;;;7.90;3.37;;;23.10;40.50;;;;;;5033373;28;20831;-61
2022/05/14 12:29:12;;;;;;;8.80;4.70;;;23.20;40.60;;;;;;5039957;28;20455;-62
2022/05/14 12:34:37;;;;;;;10.40;3.83;;;23.10;40.20;;;;;;5015017;28;20429;-61
2022/05/14 12:37:16;;;;;;;12.20;4.17;;;22.70;40.40;;;;;;5031606;28;20838;-60
2022/05/14 12:39:44;;;;;;;12.90;3.87;;;22.40;40.80;;;;;;5037054;28;20468;-61
2022/05/14 12:42:12;;;;;;;9.60;3.53;;;22.50;41.10;;;;;;5037561;28;20473;-61
2022/05/14 12:44:44;;;;;;;9.73;3.70;;;22.50;40.50;;;;;;5037628;28;20452;-61
2022/05/14 12:47:12;;;;;;;9.87;3.63;;;22.50;40.20;;;;;;5036755;28;20445;-62
2022/05/14 12:49:44;;;;;;;11.87;4.80;;;22.30;40.00;;;;;;5036537;28;20499;-61
2022/05/14 12:52:13;;;;;;;8.73;4.27;;;22.10;39.90;;;;;;5036269;28;20464;-61
2022/05/14 12:54:49;;;;;;;9.00;4.23;;;22.10;40.00;;;;;;5036869;28;20449;-60
2022/05/14 12:57:17;;;;;;;10.57;3.60;;;22.10;39.90;;;;;;5036397;28;20444;-62
2022/05/14 12:59:45;;;;;;;9.33;3.50;;;22.00;40.10;;;;;;5036704;28;20451;-61
2022/05/14 13:02:20;;;;;;;14.83;4.87;;;22.00;39.90;;;;;;5036400;28;20472;-62
2022/05/14 13:04:53;;;;;;;10.97;3.60;;;22.00;39.60;;;;;;5036112;28;20872;-61
2022/05/14 13:07:21;;;;;;;7.93;3.70;;;21.90;39.80;;;;;;5036090;28;20432;-62
2022/05/14 13:09:49;;;;;;;9.27;4.23;;;22.00;40.00;;;;;;5036183;28;21050;-61
2022/05/14 13:12:18;;;;;;;7.60;4.10;;;22.10;40.00;;;;;;5036655;28;20485;-61
2022/05/14 13:14:54;;;;;;;10.90;3.50;;;22.30;40.00;;;;;;5036695;28;20468;-62
2022/05/14 13:17:22;;;;;;;6.70;2.87;;;22.60;39.70;;;;;;5036623;28;20428;-60
2022/05/14 13:19:55;;;;;;;10.53;3.60;;;22.80;38.90;;;;;;5035697;28;20449;-62
2022/05/14 13:22:32;;;;;;;8.67;3.67;;;23.00;38.60;;;;;;5035974;28;20460;-61
2022/05/14 13:25:01;;;;;;;10.00;4.20;;;23.10;38.10;;;;;;5036036;28;20429;-62
2022/05/14 13:27:32;;;;;;;11.37;3.40;;;23.20;38.00;;;;;;5035846;28;20476;-63
2022/05/14 13:30:11;;;;;;;11.20;3.20;;;23.20;37.60;;;;;;5036547;28;20425;-62
2022/05/14 13:32:38;;;;;;;8.30;4.10;;;23.10;37.70;;;;;;5035669;28;20922;-62
2022/05/14 13:37:58;;;;;;;10.80;3.87;;;22.80;38.00;;;;;;5035502;28;20408;-62
2022/05/14 13:40:29;;;;;;;9.90;3.70;;;22.40;38.60;;;;;;5039468;28;20445;-60
2022/05/14 13:43:00;;;;;;;9.03;4.07;;;22.20;39.10;;;;;;5035593;28;20461;-60
2022/05/14 13:45:34;;;;;;;8.20;3.30;;;22.40;39.30;;;;;;5035797;28;20461;-61
2022/05/14 13:48:04;;;;;;;13.40;4.10;;;22.60;39.10;;;;;;5035426;28;20436;-61
2022/05/14 13:50:34;;;;;;;13.47;4.23;;;22.70;38.80;;;;;;5035621;28;20520;-60
2022/05/14 13:53:02;;;;;;;8.67;3.70;;;22.60;38.70;;;;;;5035586;28;20508;-60
2022/05/14 13:55:34;;;;;;;7.60;4.30;;;22.50;38.70;;;;;;5035368;28;20512;-60